Time;durP1;ratioP1;P1;durP2;ratioP2;P2;SDS_P1;SDS_P2;PMS_P1;PMS_P2;Temp;Humidity;BMP_temperature;BMP_pressure;BME280_temperature;BME280_humidity;BME280_pressure;Samples;Min_cycle;Max_cycle;Signal;HPM_P1;HPM_P2
2021/03/15 00:04:34;;;;;;;2.63;1.80;;;6.50;78.20;;;;;;10211397;27;20040;-65
2021/03/15 00:09:25;;;;;;;5.85;1.65;;;6.40;78.50;;;;;;10210526;27;20048;-62
2021/03/15 00:14:16;;;;;;;2.97;1.17;;;6.30;78.40;;;;;;10203671;27;20211;-61
2021/03/15 00:19:06;;;;;;;3.75;1.40;;;6.30;78.80;;;;;;10214974;27;20611;-66
2021/03/15 00:23:57;;;;;;;3.30;0.95;;;6.30;78.90;;;;;;10210925;27;20044;-63
2021/03/15 00:28:48;;;;;;;2.70;1.13;;;6.40;78.60;;;;;;10209725;27;20038;-63
2021/03/15 00:33:38;;;;;;;0.80;0.80;;;6.40;78.60;;;;;;10210917;27;20032;-62
2021/03/15 00:38:29;;;;;;;1.75;1.00;;;6.40;78.60;;;;;;10209151;27;20497;-63
2021/03/15 00:43:20;;;;;;;1.33;1.15;;;6.40;78.60;;;;;;10212490;27;20428;-64
2021/03/15 00:48:11;;;;;;;3.50;1.60;;;6.50;78.60;;;;;;10205601;28;20065;-61
2021/03/15 00:53:01;;;;;;;2.85;0.85;;;6.60;78.50;;;;;;10210270;27;20020;-64
2021/03/15 00:57:53;;;;;;;1.60;1.20;;;6.60;78.80;;;;;;10215029;27;20331;-62
2021/03/15 01:02:43;;;;;;;2.83;1.08;;;6.60;78.60;;;;;;10203498;27;20016;-64
2021/03/15 01:07:34;;;;;;;1.65;0.77;;;6.60;78.70;;;;;;10210100;27;20613;-64
2021/03/15 01:12:25;;;;;;;1.38;0.75;;;6.50;78.70;;;;;;10212128;27;20492;-63
2021/03/15 01:17:16;;;;;;;3.45;0.90;;;6.50;78.80;;;;;;10200669;28;20047;-60
2021/03/15 01:22:07;;;;;;;2.63;1.23;;;6.50;78.70;;;;;;10195119;27;20081;-64
2021/03/15 01:26:57;;;;;;;1.40;1.00;;;6.40;78.80;;;;;;10194077;28;20120;-63
2021/03/15 01:31:48;;;;;;;1.27;0.88;;;6.50;78.80;;;;;;10201923;28;20032;-62
2021/03/15 01:36:39;;;;;;;0.93;0.90;;;6.40;78.80;;;;;;10202761;27;20359;-63
2021/03/15 01:41:30;;;;;;;3.80;1.27;;;6.30;78.80;;;;;;10199847;28;20053;-63
2021/03/15 01:46:20;;;;;;;1.73;1.48;;;6.30;78.80;;;;;;10180492;28;20164;-62
2021/03/15 01:51:11;;;;;;;3.60;1.10;;;6.30;79.30;;;;;;10208315;28;20028;-62
2021/03/15 01:56:02;;;;;;;1.92;0.77;;;6.20;79.40;;;;;;10198662;28;20020;-62
2021/03/15 02:00:53;;;;;;;1.63;0.90;;;6.20;79.40;;;;;;10204521;27;20020;-66
2021/03/15 02:05:44;;;;;;;2.53;0.60;;;6.30;79.30;;;;;;10201200;27;20031;-64
2021/03/15 02:10:36;;;;;;;1.50;0.65;;;6.30;79.20;;;;;;10199337;27;20027;-63
2021/03/15 02:15:48;;;;;;;6.63;1.02;;;6.30;79.50;;;;;;10202968;28;20071;-63
2021/03/15 02:21:00;;;;;;;1.92;0.90;;;6.20;79.60;;;;;;10201114;27;20055;-62
2021/03/15 02:26:19;;;;;;;1.38;0.70;;;6.10;79.80;;;;;;10200545;27;20054;-67
2021/03/15 02:31:31;;;;;;;3.90;1.25;;;6.10;80.10;;;;;;10197701;27;20023;-63
2021/03/15 02:36:25;;;;;;;1.33;1.23;;;6.00;80.20;;;;;;10202427;28;20401;-63
2021/03/15 02:41:19;;;;;;;2.80;0.98;;;6.10;80.20;;;;;;10194404;28;20051;-62
2021/03/15 02:46:21;;;;;;;0.77;0.55;;;6.10;80.30;;;;;;10199353;28;20129;-62
2021/03/15 02:51:15;;;;;;;1.20;0.80;;;6.00;80.40;;;;;;10183707;28;20027;-63
2021/03/15 02:56:12;;;;;;;2.88;1.33;;;6.00;80.40;;;;;;10202216;28;20015;-63
2021/03/15 03:01:04;;;;;;;2.53;0.75;;;5.90;80.80;;;;;;10197046;28;20098;-62
2021/03/15 03:05:57;;;;;;;3.20;0.90;;;5.90;81.20;;;;;;10195854;28;20533;-63
2021/03/15 03:10:50;;;;;;;1.92;1.00;;;6.00;81.40;;;;;;10202994;28;20117;-62
2021/03/15 03:15:42;;;;;;;5.35;1.25;;;5.90;81.80;;;;;;10203609;28;20035;-63
2021/03/15 03:20:33;;;;;;;1.10;0.73;;;5.90;81.60;;;;;;10200969;28;20461;-61
2021/03/15 03:25:26;;;;;;;2.78;1.20;;;6.00;81.50;;;;;;10198878;28;20048;-63
2021/03/15 03:30:17;;;;;;;3.72;0.90;;;5.90;81.80;;;;;;10203178;28;20020;-61
2021/03/15 03:35:09;;;;;;;1.75;1.13;;;6.00;82.00;;;;;;10203217;28;20023;-62
2021/03/15 03:40:00;;;;;;;2.50;1.38;;;6.10;81.90;;;;;;10191513;28;20031;-63
2021/03/15 03:44:54;;;;;;;1.80;0.93;;;6.00;81.90;;;;;;10203301;28;20023;-62
2021/03/15 03:49:45;;;;;;;2.15;1.23;;;6.00;81.90;;;;;;10210131;28;20028;-62
2021/03/15 03:54:47;;;;;;;6.30;1.40;;;6.00;82.10;;;;;;10204783;28;20481;-62
2021/03/15 03:59:45;;;;;;;3.30;0.75;;;6.00;82.50;;;;;;10205034;28;20374;-64
2021/03/15 04:04:41;;;;;;;1.40;0.68;;;6.10;82.20;;;;;;10203117;28;20137;-63
2021/03/15 04:09:33;;;;;;;;;;;6.10;82.20;;;;;;10200649;28;20067;-63
2021/03/15 04:14:30;;;;;;;2.72;0.80;;;6.00;82.40;;;;;;10208509;28;19908;-64
2021/03/15 04:19:29;;;;;;;2.38;0.95;;;6.00;82.40;;;;;;10203850;28;20039;-65
2021/03/15 04:24:21;;;;;;;0.90;0.80;;;6.00;82.60;;;;;;10205095;27;20078;-63
2021/03/15 04:29:12;;;;;;;4.65;1.08;;;6.00;82.50;;;;;;10204057;28;20061;-63
2021/03/15 04:34:06;;;;;;;2.85;1.55;;;6.10;82.50;;;;;;10207045;27;20653;-61
2021/03/15 04:38:58;;;;;;;5.68;0.90;;;6.00;82.70;;;;;;10205850;27;20023;-61
2021/03/15 04:43:49;;;;;;;0.80;0.52;;;6.00;82.60;;;;;;10200551;28;20409;-62
2021/03/15 04:48:42;;;;;;;1.52;0.93;;;6.00;82.70;;;;;;10208572;27;20075;-63
2021/03/15 04:53:37;;;;;;;1.55;0.70;;;6.00;82.60;;;;;;10205340;27;20020;-62
2021/03/15 04:58:30;;;;;;;2.38;0.80;;;6.00;82.80;;;;;;10204397;27;20110;-63
2021/03/15 05:03:22;;;;;;;1.33;0.90;;;6.10;82.70;;;;;;10203315;27;20016;-61
2021/03/15 05:08:16;;;;;;;1.55;0.70;;;6.00;82.70;;;;;;10188338;28;20044;-64
2021/03/15 05:13:08;;;;;;;1.67;0.50;;;5.90;83.10;;;;;;10207865;27;20619;-62
2021/03/15 05:18:00;;;;;;;1.15;0.60;;;5.80;83.30;;;;;;10203317;28;20023;-63
2021/03/15 05:22:53;;;;;;;0.60;0.50;;;5.80;83.20;;;;;;10200217;27;20071;-63
2021/03/15 05:27:45;;;;;;;0.82;0.43;;;5.70;83.20;;;;;;10205656;28;20059;-64
2021/03/15 05:32:40;;;;;;;4.55;0.55;;;5.70;83.60;;;;;;10206902;28;20023;-62
2021/03/15 05:37:31;;;;;;;0.40;0.40;;;5.80;83.30;;;;;;10198402;28;20085;-64
2021/03/15 05:42:21;;;;;;;2.13;0.47;;;5.80;83.20;;;;;;10200887;28;20263;-62
2021/03/15 05:47:15;;;;;;;0.95;0.50;;;5.80;83.20;;;;;;10180871;28;20048;-63
2021/03/15 05:52:07;;;;;;;1.08;0.60;;;5.80;83.40;;;;;;10199904;28;20122;-63
2021/03/15 05:57:33;;;;;;;1.17;0.77;;;5.80;83.40;;;;;;10197557;28;20073;-62
2021/03/15 06:02:44;;;;;;;1.03;0.87;;;5.80;83.50;;;;;;10190433;28;20066;-64
2021/03/15 06:07:37;;;;;;;1.83;0.55;;;5.90;83.60;;;;;;10201132;28;20047;-65
2021/03/15 06:12:37;;;;;;;0.60;0.43;;;5.90;83.70;;;;;;10183295;28;20024;-64
2021/03/15 06:17:31;;;;;;;1.42;0.50;;;5.90;83.50;;;;;;10200150;28;20509;-63
2021/03/15 06:22:24;;;;;;;1.50;0.93;;;6.00;83.40;;;;;;10200271;28;20054;-62
2021/03/15 06:27:16;;;;;;;2.08;0.47;;;6.00;83.60;;;;;;10191518;28;20040;-63
2021/03/15 06:32:08;;;;;;;1.55;0.70;;;6.00;83.60;;;;;;10181564;28;20092;-63
2021/03/15 06:37:00;;;;;;;0.50;0.50;;;6.00;83.60;;;;;;10201290;27;20018;-62
2021/03/15 06:41:55;;;;;;;1.65;0.75;;;6.00;83.60;;;;;;10200947;28;20080;-61
2021/03/15 06:46:46;;;;;;;2.30;0.70;;;6.00;83.60;;;;;;10200978;28;20528;-64
2021/03/15 06:51:37;;;;;;;0.55;0.30;;;6.00;83.80;;;;;;10203866;28;20123;-64
2021/03/15 06:56:28;;;;;;;2.08;0.80;;;6.00;83.60;;;;;;10177028;28;20118;-64
2021/03/15 07:01:24;;;;;;;0.40;0.40;;;6.00;83.70;;;;;;10210043;28;20027;-63
2021/03/15 07:06:19;;;;;;;1.10;0.60;;;6.10;83.60;;;;;;10204062;28;20028;-63
2021/03/15 07:11:20;;;;;;;0.40;0.40;;;6.10;83.50;;;;;;10206897;28;20420;-63
2021/03/15 07:16:31;;;;;;;0.88;0.43;;;6.10;83.60;;;;;;10204629;28;20031;-62
2021/03/15 07:21:38;;;;;;;1.05;0.68;;;6.10;83.60;;;;;;10200884;28;20354;-63
2021/03/15 07:26:31;;;;;;;0.80;0.60;;;6.10;83.80;;;;;;10199463;28;20028;-64
2021/03/15 07:31:32;;;;;;;1.63;0.43;;;6.20;83.80;;;;;;10199744;28;20630;-66
2021/03/15 07:36:27;;;;;;;0.82;0.63;;;6.30;83.40;;;;;;10145718;28;20349;-62
2021/03/15 07:41:20;;;;;;;1.57;0.60;;;6.30;83.30;;;;;;10145787;28;20130;-63
2021/03/15 07:46:31;;;;;;;0.73;0.50;;;6.30;83.30;;;;;;10166263;28;20047;-61
2021/03/15 07:51:29;;;;;;;2.85;0.70;;;6.40;83.10;;;;;;10163716;28;20099;-61
2021/03/15 07:56:21;;;;;;;0.80;0.60;;;6.60;83.60;;;;;;10166182;28;20032;-62
2021/03/15 08:01:12;;;;;;;1.70;0.50;;;6.60;83.10;;;;;;10192529;28;20259;-62
2021/03/15 08:06:03;;;;;;;1.48;0.38;;;6.60;83.20;;;;;;10197729;28;20118;-62
2021/03/15 08:10:56;;;;;;;2.70;0.45;;;6.60;83.20;;;;;;10191202;27;20024;-62
2021/03/15 08:15:52;;;;;;;1.33;0.68;;;6.60;83.10;;;;;;10209661;27;20489;-63
2021/03/15 08:20:45;;;;;;;1.38;0.70;;;6.60;83.00;;;;;;10210624;27;20511;-62
2021/03/15 08:25:37;;;;;;;1.67;1.00;;;6.70;83.00;;;;;;10203477;27;20139;-61
2021/03/15 08:30:31;;;;;;;2.85;0.60;;;6.70;82.90;;;;;;10199697;28;20031;-65
2021/03/15 08:35:23;;;;;;;1.17;0.30;;;6.80;82.80;;;;;;10199174;28;20354;-61
2021/03/15 08:40:14;;;;;;;0.75;0.35;;;7.00;82.40;;;;;;10211636;27;20055;-62
2021/03/15 08:45:28;;;;;;;1.00;0.75;;;6.90;82.30;;;;;;10193808;27;20055;-59
2021/03/15 08:50:34;;;;;;;2.25;1.13;;;7.00;82.20;;;;;;10182279;28;20111;-60
2021/03/15 08:55:45;;;;;;;2.22;0.82;;;7.10;82.10;;;;;;10205008;27;20471;-62
2021/03/15 09:00:37;;;;;;;1.80;0.57;;;7.20;81.80;;;;;;10202719;27;20028;-62
2021/03/15 09:05:29;;;;;;;1.88;0.57;;;7.30;81.70;;;;;;10206465;27;20035;-61
2021/03/15 09:10:23;;;;;;;1.38;0.70;;;7.30;81.80;;;;;;10194282;28;20553;-62
2021/03/15 09:15:33;;;;;;;2.88;0.70;;;7.40;81.60;;;;;;10200452;28;20031;-61
2021/03/15 09:20:35;;;;;;;2.72;1.08;;;7.50;81.60;;;;;;10189864;28;20024;-65
2021/03/15 09:25:26;;;;;;;1.70;1.05;;;7.50;81.60;;;;;;10192251;28;20517;-63
2021/03/15 09:30:37;;;;;;;1.65;0.90;;;7.50;81.60;;;;;;10204551;28;20039;-62
2021/03/15 09:35:31;;;;;;;2.17;1.05;;;7.60;81.40;;;;;;10199579;27;20031;-61
2021/03/15 09:40:29;;;;;;;1.02;0.70;;;7.80;81.20;;;;;;10198716;28;20058;-62
2021/03/15 09:45:26;;;;;;;2.10;0.77;;;8.10;80.90;;;;;;10188517;28;20853;-62
2021/03/15 09:50:28;;;;;;;1.65;0.85;;;8.10;80.80;;;;;;10180957;28;20573;-63
2021/03/15 09:55:19;;;;;;;1.67;0.80;;;8.10;80.80;;;;;;10191817;28;20514;-61
2021/03/15 10:00:14;;;;;;;2.15;0.80;;;8.40;80.50;;;;;;10190118;28;20490;-61
2021/03/15 10:05:07;;;;;;;2.47;1.33;;;8.50;79.80;;;;;;10199836;27;20421;-63
2021/03/15 10:10:11;;;;;;;1.67;1.00;;;8.60;79.50;;;;;;10204449;27;20101;-60
2021/03/15 10:15:05;;;;;;;1.35;1.25;;;8.80;79.00;;;;;;10191629;28;20088;-62
2021/03/15 10:19:56;;;;;;;2.30;1.50;;;8.80;78.20;;;;;;10197787;28;20091;-62
2021/03/15 10:24:50;;;;;;;3.83;1.52;;;8.90;78.40;;;;;;10180233;28;20165;-63
2021/03/15 10:29:42;;;;;;;2.33;1.40;;;9.10;77.80;;;;;;10201488;28;20408;-64
2021/03/15 10:34:33;;;;;;;2.95;1.52;;;9.20;76.90;;;;;;10194741;28;20024;-65
2021/03/15 10:39:25;;;;;;;1.50;1.33;;;9.30;76.30;;;;;;10175142;28;20058;-63
2021/03/15 10:44:23;;;;;;;1.25;0.93;;;9.40;75.90;;;;;;10197104;28;20019;-62
2021/03/15 10:49:23;;;;;;;1.70;1.48;;;9.50;74.90;;;;;;10199632;28;20054;-63
2021/03/15 10:54:36;;;;;;;3.17;1.23;;;10.00;74.60;;;;;;10196575;28;20118;-63
2021/03/15 10:59:34;;;;;;;3.17;1.30;;;10.10;74.00;;;;;;10179503;28;20108;-63
2021/03/15 11:04:35;;;;;;;2.13;1.38;;;10.00;73.70;;;;;;10185542;28;20016;-62
2021/03/15 11:09:26;;;;;;;3.47;1.25;;;10.40;72.60;;;;;;10200173;28;20262;-62
2021/03/15 11:14:16;;;;;;;2.40;1.10;;;10.30;72.40;;;;;;10176474;28;20119;-63
2021/03/15 11:19:13;;;;;;;1.80;1.10;;;10.10;73.20;;;;;;10198271;28;20034;-63
2021/03/15 11:24:06;;;;;;;0.82;0.77;;;10.10;72.80;;;;;;10174016;28;20236;-62
2021/03/15 11:28:57;;;;;;;1.00;0.90;;;10.20;71.90;;;;;;10191116;28;20544;-63
2021/03/15 11:34:00;;;;;;;1.30;1.05;;;9.80;72.00;;;;;;10163899;28;20024;-65
2021/03/15 11:38:55;;;;;;;1.38;0.93;;;9.80;71.70;;;;;;10193069;28;20088;-63
2021/03/15 11:43:46;;;;;;;1.60;0.70;;;9.90;71.20;;;;;;10194728;28;20036;-64
2021/03/15 11:48:37;;;;;;;1.02;0.77;;;10.20;70.30;;;;;;10206005;27;20154;-63
2021/03/15 11:53:28;;;;;;;1.00;0.80;;;10.40;68.40;;;;;;10199298;28;20061;-65
2021/03/15 11:58:19;;;;;;;0.60;0.60;;;10.60;68.50;;;;;;10189880;27;20473;-63
2021/03/15 12:03:10;;;;;;;1.00;0.85;;;11.00;66.90;;;;;;10202921;28;20039;-63
2021/03/15 12:08:00;;;;;;;1.55;1.00;;;11.60;65.50;;;;;;10203034;28;20401;-67
2021/03/15 12:12:51;;;;;;;1.00;0.80;;;11.70;64.70;;;;;;10198148;28;20023;-64
2021/03/15 12:17:43;;;;;;;0.85;0.30;;;11.60;64.80;;;;;;10200444;27;20497;-66
2021/03/15 12:22:34;;;;;;;0.38;0.38;;;11.20;63.60;;;;;;10185803;28;20097;-64
2021/03/15 12:27:26;;;;;;;0.30;0.30;;;11.30;63.60;;;;;;10179953;28;20286;-66
2021/03/15 12:32:17;;;;;;;0.60;0.40;;;11.40;62.70;;;;;;10204828;27;20464;-69
2021/03/15 12:37:08;;;;;;;0.90;0.60;;;11.50;62.50;;;;;;10163860;28;20028;-66
2021/03/15 12:41:59;;;;;;;1.50;0.60;;;11.30;63.00;;;;;;10201432;28;20412;-65
2021/03/15 12:46:50;;;;;;;1.60;0.52;;;11.70;63.20;;;;;;10199264;28;20705;-65
2021/03/15 12:51:40;;;;;;;1.65;0.68;;;12.00;63.00;;;;;;10201043;28;20024;-66
2021/03/15 12:56:32;;;;;;;1.70;0.57;;;12.10;63.10;;;;;;10190222;28;20019;-69
2021/03/15 13:01:22;;;;;;;1.48;1.08;;;12.30;62.90;;;;;;10200441;27;20064;-63
2021/03/15 13:06:18;;;;;;;2.28;0.63;;;11.90;62.80;;;;;;10202736;28;20501;-65
2021/03/15 13:11:10;;;;;;;1.00;0.50;;;11.20;63.30;;;;;;10205399;28;20434;-64
2021/03/15 13:16:01;;;;;;;1.10;0.60;;;10.50;62.90;;;;;;10201704;28;20039;-65
2021/03/15 13:20:52;;;;;;;1.38;0.65;;;9.80;64.40;;;;;;10202419;27;20036;-66
2021/03/15 13:25:43;;;;;;;0.88;0.50;;;9.70;65.40;;;;;;10196982;28;20084;-65
2021/03/15 13:30:34;;;;;;;1.48;0.60;;;9.30;66.00;;;;;;10199892;28;20047;-65
2021/03/15 13:35:25;;;;;;;1.25;0.70;;;9.40;66.30;;;;;;10200207;28;20518;-63
2021/03/15 13:40:16;;;;;;;1.02;0.50;;;10.70;66.30;;;;;;10205274;28;21110;-64
2021/03/15 13:45:07;;;;;;;2.85;0.75;;;11.60;66.20;;;;;;10179636;28;20398;-65
2021/03/15 13:49:58;;;;;;;1.05;0.50;;;14.20;63.60;;;;;;10204891;28;20039;-64
2021/03/15 13:54:49;;;;;;;0.90;0.45;;;17.90;57.80;;;;;;10181297;28;20500;-63
2021/03/15 13:59:40;;;;;;;0.80;0.80;;;19.10;53.30;;;;;;10195357;28;20054;-62
2021/03/15 14:04:31;;;;;;;0.77;0.70;;;20.00;51.50;;;;;;10201986;28;20267;-62
2021/03/15 14:09:21;;;;;;;1.42;0.98;;;18.10;52.70;;;;;;10199456;28;21439;-63
2021/03/15 14:14:12;;;;;;;0.88;0.68;;;17.30;54.20;;;;;;10194214;28;20028;-64
2021/03/15 14:19:04;;;;;;;1.90;0.70;;;15.40;55.50;;;;;;10190371;28;20050;-66
2021/03/15 14:23:55;;;;;;;3.17;0.88;;;13.50;56.20;;;;;;10203031;27;20487;-65
2021/03/15 14:28:46;;;;;;;2.67;1.20;;;13.50;56.10;;;;;;10199424;28;20036;-64
2021/03/15 14:33:36;;;;;;;1.15;0.50;;;13.30;54.30;;;;;;10176956;28;20031;-66
2021/03/15 14:38:27;;;;;;;1.52;0.60;;;13.10;54.30;;;;;;10206992;27;20081;-64
2021/03/15 14:43:18;;;;;;;1.30;0.70;;;12.90;53.70;;;;;;10192370;28;20061;-64
2021/03/15 14:48:09;;;;;;;1.85;1.05;;;14.60;51.80;;;;;;10202993;27;20092;-63
2021/03/15 14:53:00;;;;;;;1.73;1.00;;;16.90;48.50;;;;;;10200321;28;20051;-63
2021/03/15 14:57:50;;;;;;;5.15;0.85;;;17.80;46.20;;;;;;10191772;28;20039;-64
2021/03/15 15:02:41;;;;;;;1.33;0.77;;;19.40;44.40;;;;;;10193197;28;20062;-62
2021/03/15 15:07:32;;;;;;;2.47;1.00;;;20.50;41.20;;;;;;10193897;28;20039;-64
2021/03/15 15:12:23;;;;;;;1.42;1.10;;;21.20;39.80;;;;;;10200792;28;20134;-64
2021/03/15 15:17:14;;;;;;;2.45;0.95;;;19.60;40.40;;;;;;10198084;28;20027;-63
2021/03/15 15:22:05;;;;;;;1.10;0.60;;;19.50;38.30;;;;;;10194762;28;20586;-60
2021/03/15 15:26:56;;;;;;;0.80;0.50;;;18.20;38.60;;;;;;10184606;27;20047;-64
2021/03/15 15:31:47;;;;;;;1.35;0.80;;;19.50;37.20;;;;;;10190522;28;20073;-63
2021/03/15 15:36:37;;;;;;;1.52;1.00;;;19.90;35.60;;;;;;10215915;27;20023;-62
2021/03/15 15:41:28;;;;;;;5.72;0.90;;;16.60;38.30;;;;;;10215247;27;20015;-64
2021/03/15 15:46:21;;;;;;;1.00;0.77;;;13.80;42.90;;;;;;10209906;27;20359;-64
2021/03/15 15:51:12;;;;;;;1.27;1.17;;;15.80;40.60;;;;;;10213933;27;20365;-64
2021/03/15 15:56:03;;;;;;;1.60;1.08;;;14.00;41.50;;;;;;10178185;27;20474;-64
2021/03/15 16:00:54;;;;;;;1.15;1.05;;;16.50;38.80;;;;;;10200942;27;20039;-69
2021/03/15 16:05:45;;;;;;;1.35;0.80;;;19.00;35.10;;;;;;10214805;27;20039;-63
2021/03/15 16:10:36;;;;;;;2.10;1.10;;;18.40;35.40;;;;;;10189093;27;20028;-62
2021/03/15 16:15:27;;;;;;;1.50;1.00;;;17.30;36.70;;;;;;10194107;27;20027;-60
2021/03/15 16:20:18;;;;;;;1.33;0.90;;;17.70;36.70;;;;;;10183529;27;20450;-60
2021/03/15 16:25:09;;;;;;;1.75;1.25;;;19.40;34.80;;;;;;10168753;28;20513;-63
2021/03/15 16:30:00;;;;;;;3.53;0.80;;;19.70;34.30;;;;;;10200914;27;20039;-61
2021/03/15 16:34:50;;;;;;;2.60;1.27;;;15.50;39.50;;;;;;10210060;27;20092;-62
2021/03/15 16:39:41;;;;;;;1.13;0.95;;;13.60;42.80;;;;;;10207054;27;20039;-65
2021/03/15 16:44:32;;;;;;;1.73;1.20;;;12.60;44.40;;;;;;10206634;28;20020;-61
2021/03/15 16:49:23;;;;;;;2.40;1.23;;;12.20;44.90;;;;;;10200919;28;20085;-61
2021/03/15 16:54:13;;;;;;;2.45;1.00;;;11.80;45.10;;;;;;10207137;27;20143;-60
2021/03/15 16:59:05;;;;;;;1.95;1.40;;;11.40;45.60;;;;;;10205725;28;20452;-62
2021/03/15 17:03:56;;;;;;;1.33;0.85;;;11.30;46.10;;;;;;10201449;28;20044;-60
2021/03/15 17:08:46;;;;;;;2.50;0.80;;;11.20;46.20;;;;;;10209742;27;20504;-62
2021/03/15 17:13:37;;;;;;;1.50;0.90;;;10.80;47.30;;;;;;10200138;28;20019;-60
2021/03/15 17:18:29;;;;;;;1.63;0.70;;;10.10;49.20;;;;;;10186730;28;20033;-61
2021/03/15 17:23:21;;;;;;;0.85;0.63;;;10.00;50.80;;;;;;10198557;28;20630;-62
2021/03/15 17:28:12;;;;;;;3.80;2.00;;;9.90;50.90;;;;;;10189577;28;20093;-62
2021/03/15 17:33:03;;;;;;;0.85;0.77;;;9.60;52.10;;;;;;10183424;28;20072;-61
2021/03/15 17:37:53;;;;;;;2.38;1.00;;;9.60;53.00;;;;;;10201417;28;20028;-62
2021/03/15 17:42:44;;;;;;;2.38;0.65;;;9.50;53.40;;;;;;10202477;27;20028;-62
2021/03/15 17:47:36;;;;;;;0.50;0.50;;;9.40;53.80;;;;;;10173047;27;20169;-63
2021/03/15 17:52:27;;;;;;;0.77;0.68;;;9.40;54.70;;;;;;10196730;27;20028;-64
2021/03/15 17:57:20;;;;;;;0.95;0.73;;;9.20;55.10;;;;;;10202812;28;20039;-63
2021/03/15 18:02:11;;;;;;;3.22;1.05;;;9.20;54.60;;;;;;10205602;28;20027;-62
2021/03/15 18:07:04;;;;;;;3.17;1.45;;;9.20;54.80;;;;;;10202732;28;20024;-61
2021/03/15 18:11:55;;;;;;;1.42;0.95;;;9.20;55.00;;;;;;10177362;28;20030;-62
2021/03/15 18:16:47;;;;;;;3.08;1.20;;;9.20;55.90;;;;;;10202161;28;20031;-62
2021/03/15 18:21:41;;;;;;;1.90;1.05;;;9.00;56.20;;;;;;10203140;28;20278;-62
2021/03/15 18:26:32;;;;;;;1.38;0.90;;;8.80;56.30;;;;;;10179187;28;20505;-60
2021/03/15 18:31:23;;;;;;;1.92;1.13;;;8.70;57.00;;;;;;10176258;28;20020;-63
2021/03/15 18:36:14;;;;;;;2.50;0.82;;;8.50;57.20;;;;;;10201682;28;20024;-60
2021/03/15 18:41:05;;;;;;;2.00;0.90;;;8.40;57.80;;;;;;10198202;28;20058;-63
2021/03/15 18:45:56;;;;;;;2.42;1.20;;;8.40;57.90;;;;;;10202766;28;20040;-63
2021/03/15 18:50:47;;;;;;;1.38;0.95;;;8.30;58.40;;;;;;10201842;28;20127;-62
2021/03/15 18:55:38;;;;;;;1.48;1.20;;;8.20;59.10;;;;;;10191053;28;20032;-62
2021/03/15 19:00:29;;;;;;;3.30;1.23;;;8.10;59.40;;;;;;10183642;28;20542;-61
2021/03/15 19:05:22;;;;;;;4.00;1.20;;;8.00;59.50;;;;;;10197790;28;20036;-63
2021/03/15 19:10:13;;;;;;;1.15;0.90;;;8.00;59.60;;;;;;10192852;28;20047;-64
2021/03/15 19:15:05;;;;;;;1.85;0.98;;;8.00;60.20;;;;;;10204448;28;20525;-64
2021/03/15 19:19:56;;;;;;;3.33;0.90;;;7.90;60.80;;;;;;10201510;28;20652;-63
2021/03/15 19:24:46;;;;;;;3.45;1.25;;;7.90;60.80;;;;;;10167150;28;20518;-61
2021/03/15 19:29:37;;;;;;;4.93;1.20;;;7.90;60.60;;;;;;10161342;28;20046;-62
2021/03/15 19:34:28;;;;;;;3.17;1.02;;;7.80;61.10;;;;;;10171296;28;20081;-66
2021/03/15 19:39:19;;;;;;;0.75;0.70;;;7.80;61.40;;;;;;10163044;28;20052;-62
2021/03/15 19:44:10;;;;;;;1.52;1.10;;;7.70;61.60;;;;;;10166393;28;20024;-62
2021/03/15 19:49:01;;;;;;;2.28;0.90;;;7.70;61.70;;;;;;10159610;28;20040;-61
2021/03/15 19:53:51;;;;;;;4.20;1.10;;;7.80;61.60;;;;;;10164068;28;20059;-63
2021/03/15 19:58:42;;;;;;;1.63;1.25;;;7.80;62.00;;;;;;10159972;28;20184;-62
2021/03/15 20:03:33;;;;;;;1.90;1.23;;;7.60;62.20;;;;;;10169356;28;20025;-62
2021/03/15 20:08:24;;;;;;;2.78;1.27;;;7.50;62.70;;;;;;10153159;28;20046;-62
2021/03/15 20:13:15;;;;;;;3.17;1.33;;;7.60;62.60;;;;;;10171962;28;20491;-63
2021/03/15 20:18:07;;;;;;;2.00;1.23;;;7.50;63.20;;;;;;10160727;28;20031;-62
2021/03/15 20:22:57;;;;;;;1.45;0.88;;;7.40;63.30;;;;;;10179291;28;20477;-62
2021/03/15 20:27:55;;;;;;;4.25;1.40;;;7.40;63.50;;;;;;10204532;27;21382;-62
2021/03/15 20:32:46;;;;;;;1.65;1.30;;;7.50;63.40;;;;;;10200496;28;20067;-63
2021/03/15 20:37:37;;;;;;;2.67;1.40;;;7.50;63.40;;;;;;10202504;28;20028;-63
2021/03/15 20:42:27;;;;;;;4.80;1.50;;;7.40;63.60;;;;;;10191113;27;20404;-64
2021/03/15 20:47:18;;;;;;;2.22;1.20;;;7.30;63.70;;;;;;10199524;28;20069;-63
2021/03/15 20:52:09;;;;;;;3.17;1.20;;;7.20;64.10;;;;;;10206231;28;20024;-63
2021/03/15 20:57:00;;;;;;;2.35;1.13;;;7.20;64.40;;;;;;10196916;27;20028;-62
2021/03/15 21:01:51;;;;;;;3.20;0.73;;;7.30;64.30;;;;;;10182469;28;20062;-62
2021/03/15 21:06:41;;;;;;;2.03;1.05;;;7.20;64.60;;;;;;10189065;27;20393;-64
2021/03/15 21:11:32;;;;;;;2.50;0.80;;;7.20;64.70;;;;;;10204120;28;20425;-63
2021/03/15 21:16:23;;;;;;;2.03;0.98;;;7.10;64.90;;;;;;10173692;28;20483;-62
2021/03/15 21:21:14;;;;;;;1.92;0.90;;;7.10;64.80;;;;;;10205518;28;20022;-63
2021/03/15 21:26:04;;;;;;;2.97;1.20;;;7.00;65.10;;;;;;10197989;28;20508;-63
2021/03/15 21:30:55;;;;;;;1.08;1.00;;;7.00;65.00;;;;;;10197882;28;20028;-64
2021/03/15 21:35:46;;;;;;;1.73;1.20;;;7.00;65.30;;;;;;10193307;28;20060;-62
2021/03/15 21:40:40;;;;;;;2.30;1.92;;;7.10;65.20;;;;;;10190743;28;20024;-61
2021/03/15 21:45:31;;;;;;;2.75;1.48;;;7.10;65.10;;;;;;10185680;28;20114;-61
2021/03/15 21:50:27;;;;;;;2.60;1.23;;;7.00;65.00;;;;;;10185205;28;20039;-64
2021/03/15 21:55:18;;;;;;;2.58;0.90;;;7.10;65.10;;;;;;10197258;28;20096;-63
2021/03/15 22:00:14;;;;;;;4.93;0.98;;;7.20;65.00;;;;;;10201719;28;20035;-61
2021/03/15 22:05:06;;;;;;;3.17;1.58;;;7.40;64.60;;;;;;10199759;28;20594;-61
2021/03/15 22:09:56;;;;;;;3.05;1.23;;;7.30;64.80;;;;;;10182415;28;20051;-62
2021/03/15 22:14:47;;;;;;;2.90;1.02;;;7.30;64.70;;;;;;10186311;28;20070;-63
2021/03/15 22:19:38;;;;;;;2.38;1.00;;;7.30;64.80;;;;;;10189165;28;20517;-62
2021/03/15 22:24:29;;;;;;;5.65;1.40;;;7.30;64.80;;;;;;10186207;28;20086;-63
2021/03/15 22:29:19;;;;;;;3.45;1.38;;;7.30;64.70;;;;;;10203644;27;20121;-63
2021/03/15 22:34:10;;;;;;;3.47;1.42;;;7.30;64.80;;;;;;10186179;28;20030;-64
2021/03/15 22:39:02;;;;;;;1.52;1.00;;;7.20;64.90;;;;;;10195754;27;20023;-62
2021/03/15 22:43:53;;;;;;;4.07;1.50;;;7.10;65.10;;;;;;10201498;28;20035;-62
2021/03/15 22:48:44;;;;;;;1.58;1.17;;;7.00;65.20;;;;;;10187626;28;20081;-62
2021/03/15 22:53:35;;;;;;;3.28;1.30;;;7.00;65.40;;;;;;10190522;28;20046;-62
2021/03/15 22:58:26;;;;;;;4.07;1.58;;;7.10;65.30;;;;;;10194703;27;20032;-63
2021/03/15 23:03:17;;;;;;;2.28;1.30;;;7.10;65.20;;;;;;10201116;27;20011;-62
2021/03/15 23:08:08;;;;;;;1.88;1.10;;;7.10;65.10;;;;;;10191197;28;20391;-62
2021/03/15 23:12:59;;;;;;;2.10;1.40;;;7.20;65.20;;;;;;10188325;28;20393;-63
2021/03/15 23:17:50;;;;;;;1.23;1.05;;;7.20;65.00;;;;;;10198160;28;20031;-62
2021/03/15 23:22:53;;;;;;;2.05;1.67;;;7.20;65.10;;;;;;10182558;28;20044;-62
2021/03/15 23:27:45;;;;;;;2.85;1.65;;;7.20;65.10;;;;;;10190377;28;20032;-61
2021/03/15 23:32:36;;;;;;;3.65;1.60;;;7.30;64.90;;;;;;10202210;28;20032;-61
2021/03/15 23:37:27;;;;;;;2.70;1.40;;;7.20;65.00;;;;;;10189000;28;20054;-64
2021/03/15 23:42:18;;;;;;;4.43;1.33;;;7.20;65.20;;;;;;10184828;28;20032;-62
2021/03/15 23:47:11;;;;;;;1.75;1.35;;;7.10;65.70;;;;;;10211433;27;20046;-61
2021/03/15 23:52:01;;;;;;;5.38;1.58;;;7.10;65.40;;;;;;10192486;27;20299;-64
2021/03/15 23:56:52;;;;;;;3.40;1.67;;;7.20;65.40;;;;;;10188556;28;20837;-61
